Terminal Aerodrome Forecast
Issued by NWS

Home | Current Version | Previous Version | Text Only | Print | Product List | Glossary On
Versions: 1 2 3 4 5 6 7 8 9 10 11 12 13 14 15 16 17 18 19 20 21 22 23 24 25 26 27 28 29
000
FTUS41 KOKX 271945 AAB
TAFTEB
TAF AMD
KTEB 271945Z 2720/2818 16011G17KT 6SM SHRA FEW020 BKN040
      TEMPO 2722/2724 -TSRA SCT020 BKN040CB
     FM280100 21009KT P6SM SCT010 BKN040
     FM280400 21006KT P6SM SCT010 BKN040
     FM280700 20005KT 5SM BR BKN010
     FM281400 22010KT P6SM SCT012 BKN200
     FM281600 22011KT P6SM FEW020 BKN040=

USA.gov is the U.S. government's official web portal to all federal, state and local government web resources and services.